createdAt,value
2022-10-18T00:00:12.396Z,99.90
2022-10-18T00:02:39.884Z,99.90
2022-10-18T00:05:07.742Z,99.90
2022-10-18T00:07:35.312Z,99.90
2022-10-18T00:10:02.870Z,99.90
2022-10-18T00:12:32.517Z,99.90
2022-10-18T00:14:59.929Z,99.90
2022-10-18T00:17:27.794Z,99.90
2022-10-18T00:19:55.364Z,99.90
2022-10-18T00:22:22.991Z,99.90
2022-10-18T00:24:50.379Z,99.90
2022-10-18T00:27:17.995Z,99.90
2022-10-18T00:29:45.553Z,99.90
2022-10-18T00:32:12.982Z,99.90
2022-10-18T00:34:40.616Z,99.90
2022-10-18T00:37:08.550Z,99.90
2022-10-18T00:39:35.995Z,99.90
2022-10-18T00:42:03.649Z,99.90
2022-10-18T00:44:31.007Z,99.90
2022-10-18T00:47:02.272Z,99.90
2022-10-18T00:49:32.178Z,99.90
2022-10-18T00:51:59.488Z,99.90
2022-10-18T00:54:27.859Z,99.90
2022-10-18T00:56:55.495Z,99.90
2022-10-18T00:59:23.496Z,99.90
2022-10-18T01:01:51.887Z,99.90
2022-10-18T01:04:20.961Z,99.90
2022-10-18T01:07:07.060Z,99.90
2022-10-18T01:09:34.456Z,99.90
2022-10-18T01:12:09.617Z,99.90
2022-10-18T01:14:47.252Z,99.90
2022-10-18T01:17:26.376Z,99.90
2022-10-18T01:20:00.185Z,99.90
2022-10-18T01:22:31.471Z,99.90
2022-10-18T01:25:08.369Z,99.90
2022-10-18T01:27:44.849Z,99.90
2022-10-18T01:30:21.712Z,99.90
2022-10-18T01:32:52.443Z,99.90
2022-10-18T01:35:26.502Z,99.90
2022-10-18T01:37:56.126Z,99.90
2022-10-18T01:40:23.662Z,99.90
2022-10-18T01:42:51.214Z,99.90
2022-10-18T01:45:19.117Z,99.90
2022-10-18T01:47:47.215Z,99.90
2022-10-18T01:50:14.546Z,99.90
2022-10-18T01:52:48.929Z,99.90
2022-10-18T01:55:16.615Z,99.90
2022-10-18T01:58:05.941Z,99.90
2022-10-18T02:00:42.305Z,99.90
2022-10-18T02:03:23.301Z,99.90
2022-10-18T02:05:50.673Z,99.90
2022-10-18T02:08:23.172Z,99.90
2022-10-18T02:10:54.656Z,99.90
2022-10-18T02:13:23.457Z,99.90
2022-10-18T02:15:56.042Z,99.90
2022-10-18T02:18:25.583Z,99.90
2022-10-18T02:20:54.472Z,99.90
2022-10-18T02:23:23.729Z,99.90
2022-10-18T02:25:51.121Z,99.90
2022-10-18T02:28:18.738Z,99.90
2022-10-18T02:30:49.179Z,99.90
2022-10-18T02:33:19.476Z,99.90
2022-10-18T02:35:52.586Z,99.90
2022-10-18T02:38:21.073Z,99.90
2022-10-18T02:40:48.393Z,99.90
2022-10-18T02:43:15.775Z,99.90
2022-10-18T02:45:43.162Z,99.90
2022-10-18T02:48:10.935Z,99.90
2022-10-18T02:50:38.326Z,99.90
2022-10-18T02:53:05.680Z,99.90
2022-10-18T02:55:33.237Z,99.90
2022-10-18T02:58:00.623Z,99.90
2022-10-18T03:00:27.923Z,99.90
2022-10-18T03:02:55.304Z,99.90
2022-10-18T03:05:22.689Z,99.90
2022-10-18T03:07:50.281Z,99.90
2022-10-18T03:10:17.591Z,99.90
2022-10-18T03:12:45.048Z,99.90
2022-10-18T03:15:12.368Z,99.90
2022-10-18T03:17:39.747Z,99.90
2022-10-18T03:20:07.402Z,99.90
2022-10-18T03:22:34.904Z,99.90
2022-10-18T03:25:02.236Z,99.90
2022-10-18T03:27:29.903Z,99.90
2022-10-18T03:29:57.486Z,99.90
2022-10-18T03:32:24.880Z,99.90
2022-10-18T03:34:52.327Z,99.90
2022-10-18T03:37:19.647Z,99.90
2022-10-18T03:39:46.945Z,99.90
2022-10-18T03:42:14.335Z,99.90
2022-10-18T03:44:41.694Z,99.90
2022-10-18T03:47:09.024Z,99.90
2022-10-18T03:49:36.363Z,99.90
2022-10-18T03:52:03.804Z,99.90
2022-10-18T03:54:31.203Z,99.90
2022-10-18T03:56:58.596Z,99.90
2022-10-18T03:59:25.891Z,99.90
2022-10-18T04:01:53.449Z,99.90
2022-10-18T04:04:20.838Z,99.90
2022-10-18T04:06:48.259Z,99.90
2022-10-18T04:09:15.579Z,99.90
2022-10-18T04:11:42.962Z,99.90
2022-10-18T04:14:10.335Z,99.90
2022-10-18T04:16:37.758Z,99.90
2022-10-18T04:19:05.224Z,99.90
2022-10-18T04:21:32.571Z,99.90
2022-10-18T04:24:00.136Z,99.90
2022-10-18T04:26:27.513Z,99.90
2022-10-18T04:28:55.431Z,99.90
2022-10-18T04:31:23.113Z,99.90
2022-10-18T04:33:50.443Z,99.90
2022-10-18T04:36:17.784Z,99.90
2022-10-18T04:38:45.123Z,99.90
2022-10-18T04:41:12.727Z,99.90
2022-10-18T04:43:40.124Z,99.90
2022-10-18T04:46:07.539Z,99.90
2022-10-18T04:48:34.941Z,99.90
2022-10-18T04:51:02.326Z,99.90
2022-10-18T04:53:29.865Z,99.90
2022-10-18T04:55:57.258Z,99.90
2022-10-18T04:58:24.829Z,99.90
2022-10-18T05:00:52.282Z,99.90
2022-10-18T05:03:19.764Z,99.90
2022-10-18T05:06:01.441Z,99.90
2022-10-18T05:08:29.797Z,99.90
2022-10-18T05:10:57.286Z,99.90
2022-10-18T05:13:24.902Z,99.90
2022-10-18T05:15:52.336Z,99.90
2022-10-18T05:18:20.084Z,99.90
2022-10-18T05:20:47.417Z,99.90
2022-10-18T05:23:14.883Z,99.90
2022-10-18T05:25:43.191Z,99.90
2022-10-18T05:28:15.784Z,99.90
2022-10-18T05:30:54.822Z,99.90
2022-10-18T05:33:22.138Z,99.90
2022-10-18T05:35:49.532Z,99.90
2022-10-18T05:38:16.860Z,99.90
2022-10-18T05:40:44.270Z,99.90
2022-10-18T05:43:11.578Z,99.90
2022-10-18T05:45:39.369Z,99.90
2022-10-18T05:48:08.005Z,99.90
2022-10-18T05:50:38.101Z,99.90
2022-10-18T05:53:12.469Z,99.90
2022-10-18T05:55:45.871Z,99.90
2022-10-18T05:58:13.324Z,99.90
2022-10-18T06:00:40.800Z,99.90
2022-10-18T06:03:08.155Z,99.90
2022-10-18T06:05:35.747Z,99.90
2022-10-18T06:08:05.316Z,99.90
2022-10-18T06:10:38.730Z,99.90
2022-10-18T06:13:06.075Z,99.90
2022-10-18T06:15:33.480Z,99.90
2022-10-18T06:18:00.902Z,99.90
2022-10-18T06:20:28.307Z,99.90
2022-10-18T06:22:55.647Z,99.90
2022-10-18T06:25:23.254Z,99.90
2022-10-18T06:27:51.059Z,99.90
2022-10-18T06:30:18.419Z,99.90
2022-10-18T06:32:45.789Z,99.90
2022-10-18T06:35:13.309Z,99.90
2022-10-18T06:37:40.776Z,99.90
2022-10-18T06:40:08.451Z,99.90
2022-10-18T06:42:35.912Z,99.90
2022-10-18T06:45:03.573Z,99.90
2022-10-18T06:47:30.932Z,99.90
2022-10-18T06:49:58.363Z,99.90
2022-10-18T06:52:25.935Z,99.90
2022-10-18T06:54:53.932Z,99.90
2022-10-18T06:57:21.581Z,99.90
2022-10-18T06:59:50.053Z,99.90
2022-10-18T07:02:17.858Z,99.90
2022-10-18T07:04:45.423Z,99.90
2022-10-18T07:07:12.740Z,99.90
2022-10-18T07:09:40.581Z,99.90
2022-10-18T07:12:07.896Z,99.90
2022-10-18T07:14:35.341Z,99.90
2022-10-18T07:17:02.751Z,99.90
2022-10-18T07:19:30.144Z,99.90
2022-10-18T07:21:57.478Z,99.90
2022-10-18T07:24:25.066Z,99.90
2022-10-18T07:26:52.390Z,99.90
2022-10-18T07:29:19.911Z,99.90
2022-10-18T07:31:47.288Z,99.90
2022-10-18T07:34:14.869Z,99.90
2022-10-18T07:36:42.216Z,99.90
2022-10-18T07:39:09.630Z,99.90
2022-10-18T07:41:37.239Z,99.90
2022-10-18T07:44:04.723Z,99.90
2022-10-18T07:46:32.307Z,99.90
2022-10-18T07:48:59.933Z,99.90
2022-10-18T07:51:28.047Z,99.90
2022-10-18T07:53:55.471Z,99.90
2022-10-18T07:56:22.907Z,99.90
2022-10-18T07:58:51.503Z,99.90
2022-10-18T08:01:19.616Z,99.90
2022-10-18T08:03:47.158Z,99.90
2022-10-18T08:06:16.539Z,99.90
2022-10-18T08:08:44.578Z,99.90
2022-10-18T08:11:15.045Z,99.90
2022-10-18T08:13:42.973Z,99.90
2022-10-18T08:16:11.825Z,99.90
2022-10-18T08:18:39.319Z,99.90
2022-10-18T08:21:07.962Z,99.90
2022-10-18T08:23:35.811Z,99.90
2022-10-18T08:26:04.866Z,99.90
2022-10-18T08:28:32.486Z,99.90
2022-10-18T08:31:07.191Z,99.90
2022-10-18T08:33:35.897Z,99.90
2022-10-18T08:36:07.752Z,99.90
2022-10-18T08:38:35.594Z,99.90
2022-10-18T08:41:18.193Z,99.90
2022-10-18T08:43:49.957Z,99.90
2022-10-18T08:46:17.443Z,99.90
2022-10-18T08:48:50.109Z,99.90
2022-10-18T08:51:27.431Z,99.90
2022-10-18T08:53:59.779Z,99.90
2022-10-18T08:56:27.215Z,99.90
2022-10-18T08:58:54.874Z,99.90
2022-10-18T09:01:22.294Z,99.90
2022-10-18T09:04:04.664Z,99.90
2022-10-18T09:06:51.054Z,99.90
2022-10-18T09:09:18.608Z,99.90
2022-10-18T09:12:03.101Z,99.90
2022-10-18T09:14:42.635Z,99.90
2022-10-18T09:17:32.818Z,99.90
2022-10-18T09:22:50.998Z,99.90
2022-10-18T09:25:18.356Z,99.90
2022-10-18T09:27:51.035Z,99.90
2022-10-18T09:30:29.601Z,99.90
2022-10-18T09:33:04.323Z,99.90
2022-10-18T09:35:39.253Z,99.90
2022-10-18T09:38:10.010Z,99.90
2022-10-18T09:40:44.443Z,99.90
2022-10-18T09:43:23.634Z,99.90
2022-10-18T09:45:52.405Z,99.90
2022-10-18T09:48:27.295Z,99.90
2022-10-18T09:51:05.703Z,99.90
2022-10-18T09:53:44.831Z,99.90
2022-10-18T09:56:15.516Z,99.90
2022-10-18T09:58:44.617Z,99.90
2022-10-18T10:01:14.254Z,99.90
2022-10-18T10:03:42.035Z,99.90
2022-10-18T10:06:12.474Z,99.90
2022-10-18T10:08:44.420Z,99.90
2022-10-18T10:11:30.235Z,99.90
2022-10-18T10:14:07.127Z,99.90
2022-10-18T10:16:42.688Z,99.90
2022-10-18T10:19:20.466Z,99.90
2022-10-18T10:21:49.126Z,99.90
2022-10-18T10:24:20.966Z,99.90
2022-10-18T10:26:48.989Z,99.90
2022-10-18T10:29:44.615Z,99.90
2022-10-18T10:32:13.085Z,99.90
2022-10-18T10:34:44.924Z,99.90
2022-10-18T10:37:24.848Z,99.90
2022-10-18T10:40:20.525Z,99.90
2022-10-18T10:43:18.314Z,99.90
2022-10-18T10:46:03.792Z,99.90
2022-10-18T10:48:33.661Z,99.90
2022-10-18T10:51:06.167Z,99.90
2022-10-18T10:53:43.380Z,99.90
2022-10-18T10:56:16.875Z,99.90
2022-10-18T10:58:44.650Z,99.90
2022-10-18T11:01:20.400Z,99.90
2022-10-18T11:03:49.123Z,99.90
2022-10-18T11:06:45.866Z,99.90
2022-10-18T11:09:20.895Z,99.90
2022-10-18T11:11:55.346Z,99.90
2022-10-18T11:14:26.800Z,99.90
2022-10-18T11:16:59.158Z,99.90
2022-10-18T11:19:46.432Z,99.90
2022-10-18T11:22:16.477Z,99.90
2022-10-18T11:24:44.014Z,99.90
2022-10-18T11:27:25.354Z,99.90
2022-10-18T11:30:05.048Z,99.90
2022-10-18T11:32:47.680Z,99.90
2022-10-18T11:35:15.302Z,99.90
2022-10-18T11:37:48.968Z,99.90
2022-10-18T11:40:35.018Z,99.90
2022-10-18T11:43:20.528Z,99.90
2022-10-18T11:46:08.167Z,99.90
2022-10-18T11:48:48.011Z,99.90
2022-10-18T11:51:29.634Z,99.90
2022-10-18T11:54:16.896Z,99.90
2022-10-18T11:56:44.292Z,99.90
2022-10-18T11:59:19.828Z,99.90
2022-10-18T12:02:13.802Z,99.90
2022-10-18T12:04:58.479Z,99.90
2022-10-18T12:07:40.974Z,99.90
2022-10-18T12:10:09.776Z,99.90
2022-10-18T12:12:39.536Z,99.90
2022-10-18T12:15:13.439Z,99.90
2022-10-18T12:17:48.900Z,99.90
2022-10-18T12:20:19.366Z,99.90
2022-10-18T12:22:53.262Z,99.90
2022-10-18T12:25:21.033Z,99.90
2022-10-18T12:28:12.988Z,99.90
2022-10-18T12:30:44.092Z,99.00
2022-10-18T12:33:27.836Z,97.90
2022-10-18T12:36:11.402Z,97.60
2022-10-18T12:38:40.941Z,96.20
2022-10-18T12:41:16.814Z,95.40
2022-10-18T12:43:50.628Z,95.50
2022-10-18T12:46:18.074Z,93.80
2022-10-18T12:49:03.133Z,93.20
2022-10-18T12:51:30.688Z,93.30
2022-10-18T12:54:01.022Z,92.90
2022-10-18T12:56:28.747Z,92.50
2022-10-18T12:59:14.676Z,92.40
2022-10-18T13:02:05.679Z,91.80
2022-10-18T13:04:35.329Z,92.10
2022-10-18T13:07:05.639Z,91.50
2022-10-18T13:09:37.211Z,90.00
2022-10-18T13:12:10.819Z,90.00
2022-10-18T13:14:44.177Z,89.20
2022-10-18T13:17:21.254Z,90.10
2022-10-18T13:20:24.999Z,88.90
2022-10-18T13:23:06.183Z,88.90
2022-10-18T13:25:36.487Z,86.10
2022-10-18T13:28:19.448Z,86.70
2022-10-18T13:31:05.697Z,86.10
2022-10-18T13:33:38.832Z,86.60
2022-10-18T13:36:22.829Z,86.30
2022-10-18T13:38:55.610Z,86.20
2022-10-18T13:41:31.357Z,85.30
2022-10-18T13:44:23.840Z,85.70
2022-10-18T13:46:51.598Z,84.50
2022-10-18T13:49:24.904Z,84.10
2022-10-18T13:52:11.217Z,82.90
2022-10-18T13:54:47.889Z,83.40
2022-10-18T13:57:24.579Z,84.20
2022-10-18T13:59:59.644Z,84.40
2022-10-18T14:02:49.781Z,83.60
2022-10-18T14:05:24.999Z,84.20
2022-10-18T14:07:58.367Z,86.10
2022-10-18T14:10:57.316Z,87.20
2022-10-18T14:13:28.652Z,88.40
2022-10-18T14:15:58.606Z,90.20
2022-10-18T14:18:31.425Z,90.50
2022-10-18T14:21:13.484Z,90.90
2022-10-18T14:23:45.418Z,91.30
2022-10-18T14:26:14.874Z,91.60
2022-10-18T14:28:59.240Z,92.00
2022-10-18T14:31:28.095Z,92.30
2022-10-18T14:33:58.456Z,93.30
2022-10-18T14:36:29.416Z,93.50
2022-10-18T14:38:58.518Z,93.70
2022-10-18T14:41:33.386Z,94.00
2022-10-18T14:44:16.148Z,94.30
2022-10-18T14:46:43.623Z,94.60
2022-10-18T14:49:11.767Z,95.30
2022-10-18T14:51:40.468Z,95.60
2022-10-18T14:56:42.725Z,95.70
2022-10-18T14:59:29.559Z,95.90
2022-10-18T15:01:58.532Z,96.10
2022-10-18T15:04:32.764Z,96.40
2022-10-18T15:07:04.616Z,96.70
2022-10-18T15:09:33.276Z,96.80
2022-10-18T15:12:02.149Z,97.10
2022-10-18T15:14:30.263Z,97.20
2022-10-18T15:17:06.164Z,97.10
2022-10-18T15:19:35.219Z,97.10
2022-10-18T15:25:10.751Z,97.40
2022-10-18T15:27:39.602Z,97.60
2022-10-18T15:30:15.724Z,97.80
2022-10-18T15:32:53.574Z,97.40
2022-10-18T15:35:26.751Z,97.80
2022-10-18T15:37:55.925Z,97.90
2022-10-18T15:40:23.240Z,98.10
2022-10-18T15:42:51.499Z,97.90
2022-10-18T15:45:24.773Z,98.20
2022-10-18T15:48:02.850Z,98.40
2022-10-18T15:50:50.480Z,98.20
2022-10-18T15:53:21.023Z,98.40
2022-10-18T15:55:50.176Z,98.50
2022-10-18T15:58:28.538Z,98.50
2022-10-18T16:01:00.113Z,98.60
2022-10-18T16:03:27.915Z,98.70
2022-10-18T16:06:00.643Z,98.90
2022-10-18T16:08:32.400Z,99.00
2022-10-18T16:10:59.865Z,99.30
2022-10-18T16:13:27.502Z,99.50
2022-10-18T16:15:59.486Z,99.70
2022-10-18T16:18:27.011Z,99.90
2022-10-18T16:20:54.499Z,99.90
2022-10-18T16:23:22.144Z,99.90
2022-10-18T16:25:49.891Z,99.90
2022-10-18T16:28:18.945Z,99.90
2022-10-18T16:30:51.289Z,99.90
2022-10-18T16:33:21.428Z,99.90
2022-10-18T16:35:49.408Z,99.90
2022-10-18T16:38:20.618Z,99.90
2022-10-18T16:40:48.053Z,99.90
2022-10-18T16:43:15.466Z,99.90
2022-10-18T16:45:42.922Z,99.90
2022-10-18T16:48:14.749Z,99.90
2022-10-18T16:50:42.536Z,99.90
2022-10-18T16:53:09.967Z,99.90
2022-10-18T16:55:38.415Z,99.90
2022-10-18T16:58:06.163Z,99.90
2022-10-18T17:00:33.568Z,99.90
2022-10-18T17:03:01.526Z,99.90
2022-10-18T17:05:31.343Z,99.90
2022-10-18T17:07:58.693Z,99.90
2022-10-18T17:10:27.593Z,99.90
2022-10-18T17:12:54.973Z,99.90
2022-10-18T17:15:22.327Z,99.90
2022-10-18T17:17:52.336Z,99.90
2022-10-18T17:20:23.966Z,99.90
2022-10-18T17:22:51.679Z,99.90
2022-10-18T17:25:19.609Z,99.90
2022-10-18T17:27:47.252Z,99.90
2022-10-18T17:30:15.125Z,99.90
2022-10-18T17:32:44.678Z,99.90
2022-10-18T17:35:12.348Z,99.90
2022-10-18T17:37:43.958Z,99.90
2022-10-18T17:40:13.622Z,99.90
2022-10-18T17:42:41.066Z,99.90
2022-10-18T17:45:09.005Z,99.90
2022-10-18T17:47:36.422Z,99.90
2022-10-18T17:50:04.021Z,99.90
2022-10-18T17:52:31.433Z,99.90
2022-10-18T17:54:58.859Z,99.90
2022-10-18T17:57:26.201Z,99.90
2022-10-18T17:59:55.442Z,99.90
2022-10-18T18:02:22.767Z,99.90
2022-10-18T18:04:50.172Z,99.90
2022-10-18T18:07:17.565Z,99.90
2022-10-18T18:09:45.031Z,99.90
2022-10-18T18:12:12.651Z,99.90
2022-10-18T18:14:40.418Z,99.90
2022-10-18T18:17:08.231Z,99.90
2022-10-18T18:19:36.155Z,99.90
2022-10-18T18:22:04.938Z,99.90
2022-10-18T18:24:32.771Z,99.90
2022-10-18T18:27:00.404Z,99.90
2022-10-18T18:29:29.571Z,99.90
2022-10-18T18:31:57.240Z,99.90
2022-10-18T18:34:24.709Z,99.90
2022-10-18T18:36:53.027Z,99.90
2022-10-18T18:39:24.952Z,99.90
2022-10-18T18:41:52.887Z,99.90
2022-10-18T18:44:20.863Z,99.90
2022-10-18T18:46:48.885Z,99.90
2022-10-18T18:49:16.408Z,99.90
2022-10-18T18:51:43.849Z,99.90
2022-10-18T18:54:13.884Z,99.90
2022-10-18T18:56:41.863Z,99.90
2022-10-18T18:59:11.872Z,99.90
2022-10-18T19:01:39.519Z,99.90
2022-10-18T19:04:07.949Z,99.90
2022-10-18T19:06:38.649Z,99.90
2022-10-18T19:09:07.537Z,99.90
2022-10-18T19:11:35.899Z,99.90
2022-10-18T19:14:03.667Z,99.90
2022-10-18T19:16:32.151Z,99.90
2022-10-18T19:19:06.181Z,99.90
2022-10-18T19:21:34.894Z,99.90
2022-10-18T19:24:02.322Z,99.90
2022-10-18T19:26:31.968Z,99.90
2022-10-18T19:29:05.229Z,99.90
2022-10-18T19:31:34.330Z,99.90
2022-10-18T19:34:02.850Z,99.90
2022-10-18T19:36:30.602Z,99.90
2022-10-18T19:38:58.161Z,99.90
2022-10-18T19:43:58.765Z,99.90
2022-10-18T19:46:26.621Z,99.90
2022-10-18T19:48:54.334Z,99.90
2022-10-18T19:51:26.818Z,99.90
2022-10-18T19:53:56.502Z,99.90
2022-10-18T19:56:25.148Z,99.90
2022-10-18T19:58:52.875Z,99.90
2022-10-18T20:01:20.682Z,99.90
2022-10-18T20:03:49.156Z,99.90
2022-10-18T20:06:16.522Z,99.90
2022-10-18T20:08:44.111Z,99.90
2022-10-18T20:11:12.743Z,99.90
2022-10-18T20:13:40.479Z,99.90
2022-10-18T20:16:09.054Z,99.90
2022-10-18T20:18:36.774Z,99.90
2022-10-18T20:21:05.395Z,99.90
2022-10-18T20:23:34.842Z,99.90
2022-10-18T20:26:03.547Z,99.90
2022-10-18T20:28:30.983Z,99.90
2022-10-18T20:31:02.769Z,99.90
2022-10-18T20:33:30.434Z,99.90
2022-10-18T20:36:03.917Z,99.90
2022-10-18T20:38:34.865Z,99.90
2022-10-18T20:41:03.612Z,99.90
2022-10-18T20:43:31.111Z,99.90
2022-10-18T20:45:59.383Z,99.90
2022-10-18T20:48:27.339Z,99.90
2022-10-18T20:50:54.847Z,99.90
2022-10-18T20:53:22.611Z,99.90
2022-10-18T20:55:50.138Z,99.90
2022-10-18T20:58:17.694Z,99.90
2022-10-18T21:00:45.038Z,99.90
2022-10-18T21:05:44.818Z,99.90
2022-10-18T21:08:12.170Z,99.90
2022-10-18T21:10:39.606Z,99.90
2022-10-18T21:13:07.172Z,99.90
2022-10-18T21:15:34.569Z,99.90
2022-10-18T21:18:01.879Z,99.90
2022-10-18T21:20:32.222Z,99.90
2022-10-18T21:22:59.673Z,99.90
2022-10-18T21:25:26.996Z,99.90
2022-10-18T21:27:54.370Z,99.90
2022-10-18T21:30:21.862Z,99.90
2022-10-18T21:32:52.490Z,99.90
2022-10-18T21:35:19.846Z,99.90
2022-10-18T21:37:47.610Z,99.90
2022-10-18T21:40:15.121Z,99.90
2022-10-18T21:42:42.461Z,99.90
2022-10-18T21:45:10.173Z,99.90
2022-10-18T21:47:37.609Z,99.90
2022-10-18T21:50:05.204Z,99.90
2022-10-18T21:52:32.942Z,99.90
2022-10-18T21:55:00.608Z,99.90
2022-10-18T21:57:28.077Z,99.90
2022-10-18T21:59:55.544Z,99.90
2022-10-18T22:02:23.000Z,99.90
2022-10-18T22:04:50.539Z,99.90
2022-10-18T22:07:18.046Z,99.90
2022-10-18T22:09:45.479Z,99.90
2022-10-18T22:12:12.843Z,99.90
2022-10-18T22:14:40.256Z,99.90
2022-10-18T22:17:07.658Z,99.90
2022-10-18T22:19:35.061Z,99.90
2022-10-18T22:22:02.447Z,99.90
2022-10-18T22:24:29.815Z,99.90
2022-10-18T22:26:57.297Z,99.90
2022-10-18T22:29:25.196Z,99.90
2022-10-18T22:31:53.277Z,99.90
2022-10-18T22:34:22.456Z,99.90
2022-10-18T22:36:50.216Z,99.90
2022-10-18T22:39:17.690Z,99.90
2022-10-18T22:41:45.355Z,99.90
2022-10-18T22:44:13.658Z,99.90
2022-10-18T22:46:41.619Z,99.90
2022-10-18T22:49:09.463Z,99.90
2022-10-18T22:51:36.867Z,99.90
2022-10-18T22:54:04.434Z,99.90
2022-10-18T22:56:31.773Z,99.90
2022-10-18T22:58:59.189Z,99.90
2022-10-18T23:01:26.511Z,99.90
2022-10-18T23:03:55.030Z,99.90
2022-10-18T23:06:26.793Z,99.90
2022-10-18T23:08:55.607Z,99.90
2022-10-18T23:11:23.623Z,99.90
2022-10-18T23:13:51.124Z,99.90
2022-10-18T23:16:18.826Z,99.90
2022-10-18T23:18:56.252Z,99.90
2022-10-18T23:21:24.540Z,99.90
2022-10-18T23:23:52.291Z,99.90
2022-10-18T23:26:22.009Z,99.90
2022-10-18T23:28:50.761Z,99.90
2022-10-18T23:31:23.043Z,99.90
2022-10-18T23:33:52.259Z,99.90
2022-10-18T23:36:19.831Z,99.90
2022-10-18T23:38:47.384Z,99.90
2022-10-18T23:41:15.344Z,99.90
2022-10-18T23:43:44.603Z,99.90
2022-10-18T23:46:12.707Z,99.90
2022-10-18T23:48:40.083Z,99.90
2022-10-18T23:51:07.751Z,99.90
2022-10-18T23:53:35.198Z,99.90
2022-10-18T23:56:04.224Z,99.90
2022-10-18T23:58:32.214Z,99.90
